Time,TemperatureF,DewpointF,PressureIn,WindDirection,WindDirectionDegrees,WindSpeedMPH,WindSpeedGustMPH,Humidity,HourlyPrecipIn,Conditions,Clouds,dailyrainin,SoftwareType,DateUTC
2013-12-26 00:11:00,23.9,16.0,30.43,East,82,0.0,0.0,71,0.00,,,0.00,weatherlink.com 1.10,2013-12-26 05:11:00,
2013-12-26 00:26:00,24.0,17.0,30.41,SSW,193,2.0,4.0,74,0.00,,,0.00,weatherlink.com 1.10,2013-12-26 05:26:00,
2013-12-26 00:41:00,24.2,17.0,30.41,NW,312,3.0,3.0,75,0.00,,,0.00,weatherlink.com 1.10,2013-12-26 05:41:00,
2013-12-26 00:57:00,22.8,17.0,30.41,SE,140,0.0,5.0,78,0.00,,,0.00,weatherlink.com 1.10,2013-12-26 05:57:00,
2013-12-26 01:12:00,23.8,17.0,30.40,NE,39,0.0,4.0,76,0.00,,,0.00,weatherlink.com 1.10,2013-12-26 06:12:00,
2013-12-26 01:27:00,24.2,17.0,30.40,ENE,59,1.0,3.0,74,0.00,,,0.00,weatherlink.com 1.10,2013-12-26 06:27:00,
2013-12-26 01:42:00,24.3,16.0,30.40,ENE,59,0.0,2.0,71,0.00,,,0.00,weatherlink.com 1.10,2013-12-26 06:42:00,
2013-12-26 01:57:00,24.1,17.0,30.40,ENE,68,0.0,1.0,73,0.00,,,0.00,weatherlink.com 1.10,2013-12-26 06:57:00,
2013-12-26 02:12:00,23.6,17.0,30.40,SE,127,0.0,3.0,76,0.00,,,0.00,weatherlink.com 1.10,2013-12-26 07:12:00,
2013-12-26 02:27:00,23.4,17.0,30.39,SE,127,0.0,2.0,75,0.00,,,0.00,weatherlink.com 1.10,2013-12-26 07:27:00,
2013-12-26 02:42:00,23.0,17.0,30.40,SE,127,0.0,0.0,79,0.00,,,0.00,weatherlink.com 1.10,2013-12-26 07:42:00,
2013-12-26 02:57:00,22.6,17.0,30.40,SE,127,0.0,1.0,78,0.00,,,0.00,weatherlink.com 1.10,2013-12-26 07:57:00,
2013-12-26 03:12:00,22.2,17.0,30.40,SE,127,0.0,0.0,79,0.00,,,0.00,weatherlink.com 1.10,2013-12-26 08:12:00,
2013-12-26 03:27:00,22.2,16.0,30.40,SE,127,0.0,0.0,78,0.00,,,0.00,weatherlink.com 1.10,2013-12-26 08:27:00,
2013-12-26 03:42:00,22.6,17.0,30.38,SE,127,1.0,1.0,79,0.00,,,0.00,weatherlink.com 1.10,2013-12-26 08:42:00,
2013-12-26 03:57:00,22.6,17.0,30.37,SE,127,1.0,1.0,79,0.00,,,0.00,weatherlink.com 1.10,2013-12-26 08:57:00,
2013-12-26 04:12:00,22.8,18.0,30.37,SE,127,0.0,1.0,80,0.00,,,0.00,weatherlink.com 1.10,2013-12-26 09:12:00,
2013-12-26 04:27:00,23.4,18.0,30.37,SE,127,0.0,1.0,78,0.00,,,0.00,weatherlink.com 1.10,2013-12-26 09:27:00,
2013-12-26 04:42:00,23.6,18.0,30.37,SE,127,0.0,0.0,78,0.00,,,0.00,weatherlink.com 1.10,2013-12-26 09:42:00,
2013-12-26 04:57:00,22.9,18.0,30.37,SE,127,0.0,0.0,80,0.00,,,0.00,weatherlink.com 1.10,2013-12-26 09:57:00,
2013-12-26 05:12:00,22.6,17.0,30.37,SE,127,0.0,2.0,80,0.00,,,0.00,weatherlink.com 1.10,2013-12-26 10:12:00,
2013-12-26 05:27:00,22.5,17.0,30.36,SE,127,0.0,1.0,80,0.00,,,0.00,weatherlink.com 1.10,2013-12-26 10:27:00,
2013-12-26 05:42:00,22.4,17.0,30.36,SE,127,0.0,0.0,81,0.00,,,0.00,weatherlink.com 1.10,2013-12-26 10:42:00,
2013-12-26 05:57:00,22.7,17.0,30.37,ENE,63,0.0,3.0,78,0.00,,,0.00,weatherlink.com 1.10,2013-12-26 10:57:00,
2013-12-26 06:12:00,22.3,17.0,30.36,ENE,63,0.0,1.0,79,0.00,,,0.00,weatherlink.com 1.10,2013-12-26 11:12:00,
2013-12-26 06:27:00,22.9,17.0,30.37,ENE,62,0.0,2.0,79,0.00,,,0.00,weatherlink.com 1.10,2013-12-26 11:27:00,
2013-12-26 06:42:00,22.3,17.0,30.37,ENE,62,0.0,2.0,81,0.00,,,0.00,weatherlink.com 1.10,2013-12-26 11:42:00,
2013-12-26 06:57:00,21.9,17.0,30.37,ENE,62,0.0,1.0,81,0.00,,,0.00,weatherlink.com 1.10,2013-12-26 11:57:00,
2013-12-26 07:12:00,22.8,17.0,30.37,ENE,61,0.0,3.0,79,0.00,,,0.00,weatherlink.com 1.10,2013-12-26 12:12:00,
2013-12-26 07:27:00,22.3,17.0,30.37,ENE,61,1.0,1.0,81,0.00,,,0.00,weatherlink.com 1.10,2013-12-26 12:27:00,
2013-12-26 07:42:00,21.3,17.0,30.37,ENE,61,0.0,0.0,84,0.00,,,0.00,weatherlink.com 1.10,2013-12-26 12:42:00,
2013-12-26 07:57:00,21.5,17.0,30.37,ENE,61,0.0,1.0,83,0.00,,,0.00,weatherlink.com 1.10,2013-12-26 12:57:00,
2013-12-26 08:13:00,22.2,17.0,30.39,ENE,61,0.0,1.0,81,0.00,,,0.00,weatherlink.com 1.10,2013-12-26 13:13:00,
2013-12-26 08:27:00,22.9,17.0,30.39,ENE,61,0.0,1.0,77,0.00,,,0.00,weatherlink.com 1.10,2013-12-26 13:27:00,
2013-12-26 08:42:00,24.5,19.0,30.39,ENE,61,0.0,2.0,78,0.00,,,0.00,weatherlink.com 1.10,2013-12-26 13:42:00,
2013-12-26 08:57:00,24.1,20.0,30.39,ENE,61,0.0,1.0,83,0.00,,,0.00,weatherlink.com 1.10,2013-12-26 13:57:00,
2013-12-26 09:12:00,25.4,21.0,30.39,ENE,61,0.0,2.0,82,0.00,,,0.00,weatherlink.com 1.10,2013-12-26 14:12:00,
2013-12-26 09:27:00,27.6,23.0,30.40,ENE,61,0.0,2.0,84,0.00,,,0.00,weatherlink.com 1.10,2013-12-26 14:27:00,
2013-12-26 09:42:00,30.8,22.0,30.40,ENE,61,0.0,2.0,70,0.00,,,0.00,weatherlink.com 1.10,2013-12-26 14:42:00,
2013-12-26 09:57:00,32.4,21.0,30.41,ENE,61,0.0,1.0,63,0.00,,,0.00,weatherlink.com 1.10,2013-12-26 14:57:00,
2013-12-26 10:13:00,33.9,22.0,30.40,ENE,61,0.0,2.0,61,0.00,,,0.00,weatherlink.com 1.10,2013-12-26 15:13:00,
2013-12-26 10:28:00,35.6,22.0,30.40,WNW,285,0.0,3.0,59,0.00,,,0.00,weatherlink.com 1.10,2013-12-26 15:28:00,
2013-12-26 10:43:00,36.6,22.0,30.40,NNW,328,1.0,2.0,56,0.00,,,0.00,weatherlink.com 1.10,2013-12-26 15:43:00,
2013-12-26 10:58:00,37.9,22.0,30.39,NNW,340,0.0,2.0,54,0.00,,,0.00,weatherlink.com 1.10,2013-12-26 15:58:00,
2013-12-26 11:13:00,39.7,23.0,30.39,NW,326,1.0,2.0,52,0.00,,,0.00,weatherlink.com 1.10,2013-12-26 16:13:00,
2013-12-26 11:28:00,41.0,23.0,30.38,SSE,156,0.0,4.0,49,0.00,,,0.00,weatherlink.com 1.10,2013-12-26 16:28:00,
2013-12-26 11:43:00,42.7,22.0,30.37,SSE,167,2.0,6.0,44,0.00,,,0.00,weatherlink.com 1.10,2013-12-26 16:43:00,
2013-12-26 11:58:00,44.6,23.0,30.36,SE,142,4.0,5.0,42,0.00,,,0.00,weatherlink.com 1.10,2013-12-26 16:58:00,
2013-12-26 12:13:00,45.1,23.0,30.35,SE,137,1.0,7.0,42,0.00,,,0.00,weatherlink.com 1.10,2013-12-26 17:13:00,
2013-12-26 12:28:00,46.6,25.0,30.34,SSW,201,5.0,7.0,43,0.00,,,0.00,weatherlink.com 1.10,2013-12-26 17:28:00,
2013-12-26 12:43:00,47.2,25.0,30.33,South,179,1.0,4.0,42,0.00,,,0.00,weatherlink.com 1.10,2013-12-26 17:43:00,
2013-12-26 12:58:00,48.5,26.0,30.32,WSW,250,1.0,5.0,42,0.00,,,0.00,weatherlink.com 1.10,2013-12-26 17:58:00,
2013-12-26 13:13:00,49.0,27.0,30.32,SW,226,3.0,7.0,42,0.00,,,0.00,weatherlink.com 1.10,2013-12-26 18:13:00,
2013-12-26 13:28:00,50.5,27.0,30.31,ESE,122,1.0,5.0,40,0.00,,,0.00,weatherlink.com 1.10,2013-12-26 18:28:00,
2013-12-26 13:43:00,51.9,27.0,30.30,SE,142,0.0,5.0,39,0.00,,,0.00,weatherlink.com 1.10,2013-12-26 18:43:00,
2013-12-26 13:58:00,51.7,27.0,30.30,South,172,0.0,4.0,38,0.00,,,0.00,weatherlink.com 1.10,2013-12-26 18:58:00,
2013-12-26 14:13:00,53.1,27.0,30.30,ESE,111,2.0,5.0,36,0.00,,,0.00,weatherlink.com 1.10,2013-12-26 19:13:00,
2013-12-26 14:28:00,52.4,26.0,30.29,ESE,102,2.0,5.0,36,0.00,,,0.00,weatherlink.com 1.10,2013-12-26 19:28:00,
2013-12-26 14:44:00,52.6,25.0,30.29,SE,137,1.0,7.0,35,0.00,,,0.00,weatherlink.com 1.10,2013-12-26 19:44:00,
2013-12-26 14:59:00,53.1,26.0,30.29,SSE,161,2.0,5.0,35,0.00,,,0.00,weatherlink.com 1.10,2013-12-26 19:59:00,
2013-12-26 15:14:00,53.9,26.0,30.28,SSE,167,2.0,4.0,34,0.00,,,0.00,weatherlink.com 1.10,2013-12-26 20:14:00,
2013-12-26 15:29:00,54.1,26.0,30.28,East,89,2.0,6.0,34,0.00,,,0.00,weatherlink.com 1.10,2013-12-26 20:29:00,
2013-12-26 15:44:00,54.2,25.0,30.28,SE,129,0.0,4.0,33,0.00,,,0.00,weatherlink.com 1.10,2013-12-26 20:44:00,
2013-12-26 15:59:00,54.5,26.0,30.28,SE,139,2.0,3.0,33,0.00,,,0.00,weatherlink.com 1.10,2013-12-26 20:59:00,
2013-12-26 16:14:00,54.3,26.0,30.28,SE,142,1.0,3.0,33,0.00,,,0.00,weatherlink.com 1.10,2013-12-26 21:14:00,
2013-12-26 16:29:00,53.5,27.0,30.29,SSE,149,2.0,4.0,36,0.00,,,0.00,weatherlink.com 1.10,2013-12-26 21:29:00,
2013-12-26 16:44:00,53.3,27.0,30.29,South,170,0.0,2.0,36,0.00,,,0.00,weatherlink.com 1.10,2013-12-26 21:44:00,
2013-12-26 16:59:00,52.5,27.0,30.29,SE,133,1.0,2.0,37,0.00,,,0.00,weatherlink.com 1.10,2013-12-26 21:59:00,
2013-12-26 17:14:00,51.2,26.0,30.30,SE,133,0.0,1.0,38,0.00,,,0.00,weatherlink.com 1.10,2013-12-26 22:14:00,
2013-12-26 17:29:00,49.5,26.0,30.30,SE,133,2.0,3.0,41,0.00,,,0.00,weatherlink.com 1.10,2013-12-26 22:29:00,
2013-12-26 17:44:00,48.4,25.0,30.31,SE,133,1.0,1.0,41,0.00,,,0.00,weatherlink.com 1.10,2013-12-26 22:44:00,
2013-12-26 17:59:00,46.4,27.0,30.31,East,83,1.0,2.0,47,0.00,,,0.00,weatherlink.com 1.10,2013-12-26 22:59:00,
2013-12-26 18:14:00,45.3,26.0,30.32,East,83,0.0,0.0,48,0.00,,,0.00,weatherlink.com 1.10,2013-12-26 23:14:00,
2013-12-26 18:29:00,43.5,26.0,30.32,East,83,0.0,3.0,51,0.00,,,0.00,weatherlink.com 1.10,2013-12-26 23:29:00,
2013-12-26 18:44:00,43.9,28.0,30.33,East,91,3.0,5.0,53,0.00,,,0.00,weatherlink.com 1.10,2013-12-26 23:44:00,
2013-12-26 18:59:00,42.3,27.0,30.33,East,91,2.0,2.0,54,0.00,,,0.00,weatherlink.com 1.10,2013-12-26 23:59:00,
2013-12-26 19:14:00,43.0,27.0,30.34,ENE,77,1.0,3.0,53,0.00,,,0.00,weatherlink.com 1.10,2013-12-27 00:14:00,
2013-12-26 19:29:00,41.7,26.0,30.35,East,87,1.0,3.0,55,0.00,,,0.00,weatherlink.com 1.10,2013-12-27 00:29:00,
2013-12-26 19:44:00,40.8,26.0,30.35,ENE,78,2.0,3.0,56,0.00,,,0.00,weatherlink.com 1.10,2013-12-27 00:44:00,
2013-12-26 19:59:00,40.2,26.0,30.36,ENE,77,1.0,4.0,58,0.00,,,0.00,weatherlink.com 1.10,2013-12-27 00:59:00,
2013-12-26 20:14:00,38.5,26.0,30.36,ENE,77,0.0,2.0,62,0.00,,,0.00,weatherlink.com 1.10,2013-12-27 01:14:00,
2013-12-26 20:29:00,37.5,26.0,30.36,ENE,77,0.0,2.0,64,0.00,,,0.00,weatherlink.com 1.10,2013-12-27 01:29:00,
2013-12-26 20:44:00,37.8,26.0,30.37,NE,47,0.0,5.0,62,0.00,,,0.00,weatherlink.com 1.10,2013-12-27 01:44:00,
2013-12-26 20:59:00,37.3,26.0,30.38,SE,125,0.0,4.0,64,0.00,,,0.00,weatherlink.com 1.10,2013-12-27 01:59:00,
2013-12-26 21:14:00,37.8,26.0,30.38,East,92,2.0,3.0,62,0.00,,,0.00,weatherlink.com 1.10,2013-12-27 02:14:00,
2013-12-26 21:29:00,37.5,26.0,30.38,ESE,118,0.0,4.0,63,0.00,,,0.00,weatherlink.com 1.10,2013-12-27 02:29:00,
2013-12-26 21:44:00,37.3,26.0,30.38,ESE,117,0.0,2.0,63,0.00,,,0.00,weatherlink.com 1.10,2013-12-27 02:44:00,
2013-12-26 21:59:00,37.8,25.0,30.38,ENE,68,0.0,3.0,61,0.00,,,0.00,weatherlink.com 1.10,2013-12-27 02:59:00,
2013-12-26 22:14:00,38.4,25.0,30.38,NE,53,0.0,1.0,59,0.00,,,0.00,weatherlink.com 1.10,2013-12-27 03:14:00,
2013-12-26 22:29:00,37.9,25.0,30.38,NE,53,0.0,2.0,60,0.00,,,0.00,weatherlink.com 1.10,2013-12-27 03:29:00,
2013-12-26 22:44:00,37.5,25.0,30.39,NE,56,0.0,2.0,60,0.00,,,0.00,weatherlink.com 1.10,2013-12-27 03:44:00,
2013-12-26 22:59:00,37.4,24.0,30.39,North,10,0.0,2.0,60,0.00,,,0.00,weatherlink.com 1.10,2013-12-27 03:59:00,
2013-12-26 23:14:00,36.6,25.0,30.39,North,10,0.0,1.0,62,0.00,,,0.00,weatherlink.com 1.10,2013-12-27 04:14:00,
2013-12-26 23:29:00,35.7,25.0,30.39,North,10,0.0,1.0,65,0.00,,,0.00,weatherlink.com 1.10,2013-12-27 04:29:00,
2013-12-26 23:44:00,34.3,25.0,30.39,North,10,0.0,0.0,68,0.00,,,0.00,weatherlink.com 1.10,2013-12-27 04:44:00,
2013-12-26 23:59:00,33.2,25.0,30.39,North,10,0.0,0.0,71,0.00,,,0.00,weatherlink.com 1.10,2013-12-27 04:59:00,